Time;durP1;ratioP1;P1;durP2;ratioP2;P2;SDS_P1;SDS_P2;PMS_P1;PMS_P2;Temp;Humidity;BMP_temperature;BMP_pressure;BME280_temperature;BME280_humidity;BME280_pressure;Samples;Min_cycle;Max_cycle;Signal;HPM_P1;HPM_P2
2023/03/29 00:00:49;;;;;;;23.70;11.50;;;22.50;52.10;;;;;;221941;1265;24349;-42
2023/03/29 00:06:04;;;;;;;21.10;11.00;;;22.30;52.70;;;;;;229085;1264;22309;-44
2023/03/29 00:11:08;;;;;;;20.00;11.60;;;22.20;52.50;;;;;;229145;1265;22268;-43
2023/03/29 00:16:12;;;;;;;18.80;11.00;;;22.30;52.40;;;;;;222646;1269;22511;-46
2023/03/29 00:21:16;;;;;;;17.80;11.10;;;22.30;52.60;;;;;;222438;1254;24453;-44
2023/03/29 00:26:20;;;;;;;20.60;10.70;;;22.10;52.80;;;;;;222666;1263;22504;-42
2023/03/29 00:31:25;;;;;;;16.80;10.00;;;22.00;53.00;;;;;;222695;1254;23941;-48
2023/03/29 00:36:29;;;;;;;16.00;10.10;;;22.00;53.00;;;;;;222482;1261;22705;-43
2023/03/29 00:41:33;;;;;;;14.70;9.60;;;22.00;52.90;;;;;;222569;1256;22522;-46
2023/03/29 00:46:37;;;;;;;15.70;9.80;;;22.00;53.00;;;;;;222590;1253;22576;-49
2023/03/29 00:51:42;;;;;;;16.80;10.60;;;22.00;53.10;;;;;;221092;1269;22530;-48
2023/03/29 00:56:50;;;;;;;16.70;10.10;;;22.10;53.80;;;;;;221157;1262;24377;-42
2023/03/29 01:02:01;;;;;;;17.00;10.60;;;22.20;53.10;;;;;;225144;1269;25604;-42
2023/03/29 01:07:17;;;;;;;17.30;10.10;;;22.30;52.80;;;;;;220817;1260;22769;-43
2023/03/29 01:12:29;;;;;;;16.30;10.00;;;22.30;52.70;;;;;;225016;1255;22522;-43
2023/03/29 01:17:34;;;;;;;17.60;9.40;;;22.30;52.90;;;;;;222068;1257;22524;-43
2023/03/29 01:22:59;;;;;;;14.40;9.30;;;22.30;52.70;;;;;;222304;1266;22549;-44
2023/03/29 01:28:09;;;;;;;12.80;9.00;;;22.30;53.50;;;;;;222022;1262;22960;-43
2023/03/29 01:33:22;;;;;;;13.50;9.60;;;22.30;52.60;;;;;;221961;1256;22548;-43
2023/03/29 01:38:34;;;;;;;12.90;8.90;;;22.30;52.90;;;;;;222162;1266;22518;-46
2023/03/29 01:43:50;;;;;;;18.10;10.00;;;22.20;53.00;;;;;;222190;1256;22528;-46
2023/03/29 01:49:00;;;;;;;15.60;9.30;;;22.20;52.70;;;;;;221866;1256;24180;-43
2023/03/29 01:54:11;;;;;;;13.40;9.50;;;22.10;53.00;;;;;;222175;1255;22712;-44
2023/03/29 01:59:21;;;;;;;11.20;9.00;;;22.10;53.00;;;;;;222114;1268;22623;-48
2023/03/29 02:04:34;;;;;;;13.70;8.90;;;22.10;53.40;;;;;;221972;1263;25393;-45
2023/03/29 02:09:40;;;;;;;15.10;9.40;;;22.10;53.20;;;;;;222220;1255;23899;-46
2023/03/29 02:14:44;;;;;;;13.00;9.10;;;22.20;53.40;;;;;;222436;1256;22533;-46
2023/03/29 02:20:19;;;;;;;10.10;8.20;;;22.40;54.00;;;;;;222246;1262;22505;-42
2023/03/29 02:25:24;;;;;;;13.30;9.70;;;22.40;53.80;;;;;;221913;1261;22529;-47
2023/03/29 02:30:47;;;;;;;11.90;9.50;;;22.50;54.00;;;;;;222320;1263;22616;-43
2023/03/29 02:35:57;;;;;;;13.40;8.90;;;22.50;53.80;;;;;;222222;1262;22508;-41
2023/03/29 02:41:02;;;;;;;12.30;9.10;;;22.50;54.00;;;;;;222199;1265;23992;-43
2023/03/29 02:46:07;;;;;;;13.00;9.20;;;22.40;53.70;;;;;;222355;1264;22511;-46
2023/03/29 02:51:21;;;;;;;13.50;8.90;;;22.40;54.40;;;;;;222237;1259;22603;-46
2023/03/29 02:56:25;;;;;;;13.10;9.80;;;22.40;53.80;;;;;;222636;1263;22662;-44
2023/03/29 03:01:29;;;;;;;11.40;9.30;;;22.60;54.10;;;;;;222398;1262;23916;-53
2023/03/29 03:06:35;;;;;;;11.30;9.10;;;22.50;54.00;;;;;;221968;1265;22757;-46
2023/03/29 03:11:42;;;;;;;12.20;9.20;;;22.50;53.80;;;;;;224603;1269;24187;-51
2023/03/29 03:16:46;;;;;;;10.80;8.70;;;22.50;53.80;;;;;;222251;1269;24327;-52
2023/03/29 03:21:50;;;;;;;11.10;8.50;;;22.40;53.80;;;;;;222303;1263;22578;-50
2023/03/29 03:26:57;;;;;;;11.00;8.70;;;22.30;53.70;;;;;;222326;1265;24376;-46
2023/03/29 03:32:01;;;;;;;11.90;8.70;;;22.30;53.90;;;;;;222355;1269;24485;-47
2023/03/29 03:37:29;;;;;;;10.00;8.50;;;22.20;54.10;;;;;;222212;1259;23883;-50
2023/03/29 03:42:33;;;;;;;10.40;8.30;;;22.10;53.80;;;;;;222331;1265;22525;-52
2023/03/29 03:47:38;;;;;;;12.20;8.90;;;22.00;53.90;;;;;;222176;1263;23920;-52
2023/03/29 03:52:59;;;;;;;12.50;7.80;;;22.10;53.50;;;;;;222472;1262;22507;-49
2023/03/29 03:58:06;;;;;;;10.70;8.40;;;22.00;53.40;;;;;;222162;1260;22812;-51
2023/03/29 04:03:10;;;;;;;10.10;8.30;;;22.00;53.40;;;;;;222415;1261;22654;-50
2023/03/29 04:08:16;;;;;;;11.00;8.60;;;21.90;53.50;;;;;;222317;1261;25690;-46
2023/03/29 04:13:43;;;;;;;9.60;7.90;;;21.80;53.80;;;;;;222338;1253;22525;-52
2023/03/29 04:19:02;;;;;;;11.70;8.50;;;21.70;53.60;;;;;;222294;1264;24036;-48
2023/03/29 04:24:06;;;;;;;8.90;7.50;;;21.70;53.70;;;;;;222486;1255;22560;-52
2023/03/29 04:29:11;;;;;;;10.70;8.60;;;21.60;53.70;;;;;;222199;1263;22533;-48
2023/03/29 04:34:21;;;;;;;8.90;7.50;;;21.60;54.20;;;;;;222368;1267;22524;-47
2023/03/29 04:39:32;;;;;;;11.70;7.90;;;21.50;53.80;;;;;;222179;1254;24059;-50
2023/03/29 04:44:42;;;;;;;13.30;8.60;;;21.50;53.80;;;;;;222460;1264;22530;-48
2023/03/29 04:49:48;;;;;;;10.80;8.10;;;21.40;53.80;;;;;;222376;1263;24644;-53
2023/03/29 04:55:02;;;;;;;9.70;7.80;;;21.40;54.40;;;;;;222530;1262;22519;-49
2023/03/29 05:00:31;;;;;;;10.10;7.90;;;21.70;53.90;;;;;;222369;1254;22508;-48
2023/03/29 05:05:50;;;;;;;9.50;8.10;;;21.90;53.20;;;;;;222875;1264;23920;-53
2023/03/29 05:10:55;;;;;;;9.20;7.90;;;22.00;52.60;;;;;;222732;1264;22526;-46
2023/03/29 05:16:03;;;;;;;8.90;7.60;;;22.10;52.70;;;;;;222150;1264;22649;-50
2023/03/29 05:21:08;;;;;;;9.20;7.80;;;22.10;52.40;;;;;;222447;1255;22508;-48
2023/03/29 05:26:14;;;;;;;11.20;7.80;;;22.10;52.20;;;;;;222285;1267;24247;-47
2023/03/29 05:31:22;;;;;;;10.90;8.20;;;22.10;52.20;;;;;;222209;1264;22672;-48
2023/03/29 05:36:29;;;;;;;8.40;7.50;;;22.10;52.10;;;;;;221931;1264;22647;-51
2023/03/29 05:41:34;;;;;;;10.20;7.50;;;22.10;52.00;;;;;;222331;1262;22576;-46
2023/03/29 05:46:56;;;;;;;;;;;22.10;51.90;;;;;;222088;1258;22492;-48
2023/03/29 05:52:00;;;;;;;9.70;7.90;;;22.20;51.70;;;;;;222313;1254;22640;-47
2023/03/29 05:57:05;;;;;;;10.10;7.70;;;22.20;51.70;;;;;;222152;1259;22517;-52
2023/03/29 06:02:11;;;;;;;10.00;8.10;;;22.10;51.70;;;;;;222157;1254;22512;-48
2023/03/29 06:07:20;;;;;;;8.90;7.00;;;22.10;51.80;;;;;;222098;1253;22651;-48
2023/03/29 06:12:41;;;;;;;9.60;7.90;;;22.10;51.90;;;;;;222762;1254;22699;-45
2023/03/29 06:17:45;;;;;;;12.70;7.50;;;22.10;52.60;;;;;;222403;1254;22731;-46
2023/03/29 06:22:51;;;;;;;11.30;7.60;;;22.10;52.40;;;;;;222424;1257;22511;-46
2023/03/29 06:27:55;;;;;;;19.90;7.40;;;22.10;52.40;;;;;;222225;1254;141050;-44
2023/03/29 06:32:59;;;;;;;11.30;7.30;;;22.10;52.50;;;;;;222574;1246;22516;-45
2023/03/29 06:38:19;;;;;;;8.00;6.70;;;22.10;52.40;;;;;;222298;1263;22465;-45
2023/03/29 06:43:42;;;;;;;9.00;7.10;;;22.10;52.50;;;;;;222303;1252;23912;-45
2023/03/29 06:48:52;;;;;;;8.10;6.60;;;22.10;52.80;;;;;;222454;1265;22539;-44
2023/03/29 06:53:56;;;;;;;8.70;7.10;;;22.10;53.40;;;;;;222294;1264;22650;-46
2023/03/29 06:59:00;;;;;;;11.90;7.30;;;22.20;53.10;;;;;;222377;1263;22598;-45
2023/03/29 07:04:14;;;;;;;8.90;6.90;;;22.20;53.00;;;;;;222411;1254;24218;-45
2023/03/29 07:09:38;;;;;;;12.40;6.90;;;22.30;52.60;;;;;;222383;1254;22861;-46
2023/03/29 07:15:01;;;;;;;11.00;6.90;;;22.30;52.80;;;;;;222229;1257;22737;-43
2023/03/29 07:20:25;;;;;;;9.70;6.90;;;22.30;52.80;;;;;;222200;1264;23881;-46
2023/03/29 07:25:40;;;;;;;15.30;8.90;;;22.40;52.60;;;;;;222285;1263;24045;-49
2023/03/29 07:30:45;;;;;;;12.90;7.40;;;22.40;52.40;;;;;;222644;1252;23904;-46
2023/03/29 07:35:52;;;;;;;13.00;7.60;;;22.50;52.50;;;;;;222099;1269;22648;-52
2023/03/29 07:40:57;;;;;;;10.90;7.40;;;22.50;52.20;;;;;;222635;1254;24249;-51
2023/03/29 07:46:28;;;;;;;9.90;6.40;;;22.50;52.00;;;;;;222289;1255;22513;-49
2023/03/29 07:51:33;;;;;;;17.90;7.10;;;22.60;52.30;;;;;;222381;1262;22517;-47
2023/03/29 07:56:41;;;;;;;11.20;7.00;;;22.60;52.20;;;;;;222586;1254;24179;-46
2023/03/29 08:01:54;;;;;;;7.40;5.90;;;22.60;51.90;;;;;;222498;1262;22509;-43
2023/03/29 08:07:03;;;;;;;19.50;9.60;;;22.60;51.70;;;;;;222434;1253;23916;-45
2023/03/29 08:12:25;;;;;;;89.40;38.40;;;22.60;52.20;;;;;;222656;1254;22524;-44
2023/03/29 08:17:33;;;;;;;70.90;33.90;;;22.50;51.90;;;;;;222392;1263;22550;-49
2023/03/29 08:22:38;;;;;;;52.70;26.60;;;22.50;51.80;;;;;;222225;1258;23071;-50
2023/03/29 08:28:03;;;;;;;50.00;24.30;;;22.50;51.80;;;;;;222550;1257;22678;-50
2023/03/29 08:33:17;;;;;;;48.20;24.20;;;22.50;51.90;;;;;;222509;1254;22774;-46
2023/03/29 08:38:26;;;;;;;43.80;22.00;;;22.50;51.70;;;;;;222593;1254;22515;-43
2023/03/29 08:43:51;;;;;;;37.40;20.30;;;22.40;52.00;;;;;;222529;1262;22573;-43
2023/03/29 08:49:29;;;;;;;41.00;20.00;;;22.50;51.90;;;;;;222434;1262;23440;-43
2023/03/29 08:54:41;;;;;;;38.50;19.40;;;22.50;51.40;;;;;;222165;1265;25453;-43
2023/03/29 09:00:09;;;;;;;38.20;19.40;;;22.50;51.50;;;;;;222247;1255;22564;-48
2023/03/29 09:05:25;;;;;;;38.80;19.60;;;22.50;51.30;;;;;;222203;1255;24228;-46
2023/03/29 09:11:19;;;;;;;33.70;17.60;;;22.50;51.30;;;;;;222292;1254;22625;-44
2023/03/29 09:16:39;;;;;;;37.40;19.00;;;22.50;51.10;;;;;;222406;1262;22508;-43
2023/03/29 09:21:54;;;;;;;34.50;17.80;;;22.50;51.10;;;;;;222285;1254;22623;-46
2023/03/29 09:27:09;;;;;;;35.80;17.80;;;22.50;51.10;;;;;;222595;1254;22594;-48
2023/03/29 09:32:22;;;;;;;37.00;17.60;;;22.60;51.30;;;;;;222481;1261;22512;-43
2023/03/29 09:37:35;;;;;;;27.70;16.00;;;22.60;50.80;;;;;;222391;1255;22614;-42
2023/03/29 09:42:40;;;;;;;29.20;16.30;;;22.60;50.80;;;;;;222350;1255;22507;-49
2023/03/29 09:47:56;;;;;;;27.40;15.30;;;22.60;50.80;;;;;;222584;1264;22493;-43
2023/03/29 09:53:02;;;;;;;27.80;15.80;;;22.60;51.10;;;;;;222360;1254;24354;-44
2023/03/29 09:58:17;;;;;;;27.50;14.80;;;22.60;50.70;;;;;;222235;1260;22701;-45
2023/03/29 10:03:28;;;;;;;24.90;13.70;;;22.60;50.70;;;;;;222503;1261;22559;-42
2023/03/29 10:08:55;;;;;;;23.20;13.60;;;22.60;50.20;;;;;;222610;1254;22507;-52
2023/03/29 10:14:06;;;;;;;22.20;13.10;;;22.60;50.60;;;;;;222533;1262;22520;-44
2023/03/29 10:19:33;;;;;;;25.10;13.70;;;22.70;50.60;;;;;;222337;1255;25223;-47
2023/03/29 10:24:37;;;;;;;23.10;14.40;;;22.70;50.60;;;;;;222509;1255;22639;-45
2023/03/29 10:29:42;;;;;;;23.60;12.80;;;22.60;50.50;;;;;;222462;1256;22521;-48
2023/03/29 10:34:46;;;;;;;20.00;13.10;;;22.60;50.40;;;;;;222688;1260;24134;-44
2023/03/29 10:39:53;;;;;;;18.70;11.80;;;22.60;50.40;;;;;;222580;1260;22524;-45
2023/03/29 10:44:58;;;;;;;16.50;11.50;;;22.50;51.50;;;;;;222473;1255;22530;-39
2023/03/29 10:50:06;;;;;;;18.80;12.30;;;22.40;52.40;;;;;;222509;1262;22510;-46
2023/03/29 10:55:13;;;;;;;21.50;12.60;;;22.40;55.00;;;;;;222501;1262;25543;-42
2023/03/29 11:00:28;;;;;;;19.10;12.70;;;22.40;55.50;;;;;;222543;1253;22692;-41
2023/03/29 11:06:01;;;;;;;17.40;12.00;;;22.30;55.70;;;;;;222639;1246;22523;-42
2023/03/29 11:11:14;;;;;;;16.90;11.00;;;22.30;56.20;;;;;;222330;1254;22511;-47
2023/03/29 11:16:33;;;;;;;18.60;11.30;;;22.30;56.10;;;;;;222335;1262;22504;-45
2023/03/29 11:21:54;;;;;;;19.70;11.00;;;22.30;56.30;;;;;;222491;1262;22522;-45
2023/03/29 11:27:23;;;;;;;20.90;11.30;;;22.30;56.40;;;;;;222485;1262;22644;-43
2023/03/29 11:32:34;;;;;;;16.20;9.70;;;22.30;56.80;;;;;;222242;1260;22761;-42
2023/03/29 11:37:56;;;;;;;16.20;10.50;;;22.30;56.90;;;;;;222384;1256;23868;-43
2023/03/29 11:43:04;;;;;;;16.10;10.40;;;22.30;56.90;;;;;;222647;1253;22551;-43
2023/03/29 11:48:16;;;;;;;16.90;9.50;;;22.30;56.80;;;;;;222331;1255;22523;-42
2023/03/29 11:53:35;;;;;;;;;;;22.30;57.10;;;;;;222328;1260;22646;-44
2023/03/29 11:58:43;;;;;;;15.20;8.60;;;22.30;56.90;;;;;;222398;1253;24164;-46
2023/03/29 12:03:55;;;;;;;17.20;9.90;;;22.40;56.80;;;;;;222426;1252;22890;-44
2023/03/29 12:09:06;;;;;;;12.60;8.40;;;22.40;56.60;;;;;;222369;1262;24254;-44
2023/03/29 12:14:10;;;;;;;12.50;8.00;;;22.40;56.30;;;;;;222452;1262;22531;-45
2023/03/29 12:19:34;;;;;;;11.70;8.20;;;22.40;56.40;;;;;;222234;1262;24470;-43
2023/03/29 12:24:47;;;;;;;12.30;7.70;;;22.40;56.00;;;;;;222202;1256;22569;-42
2023/03/29 12:30:26;;;;;;;12.80;8.60;;;22.50;56.20;;;;;;222169;1262;24248;-44
2023/03/29 12:36:11;;;;;;;14.20;8.00;;;22.50;55.30;;;;;;222268;1249;22530;-43
2023/03/29 12:42:11;;;;;;;16.50;8.20;;;22.50;55.60;;;;;;221111;1258;24239;-42
2023/03/29 12:47:43;;;;;;;15.10;8.10;;;22.60;55.00;;;;;;222037;1255;22627;-43
2023/03/29 12:52:48;;;;;;;16.30;7.70;;;22.60;54.90;;;;;;222266;1262;23749;-41
2023/03/29 12:58:09;;;;;;;12.60;7.20;;;22.60;54.80;;;;;;222371;1256;25406;-42
2023/03/29 13:03:33;;;;;;;9.70;7.40;;;22.50;54.80;;;;;;222353;1253;24246;-43
2023/03/29 13:08:43;;;;;;;16.40;7.70;;;22.50;54.70;;;;;;222193;1256;24177;-45
2023/03/29 13:13:49;;;;;;;12.90;6.60;;;22.50;54.60;;;;;;222329;1262;24285;-44
2023/03/29 13:19:02;;;;;;;16.80;7.60;;;22.50;54.40;;;;;;222154;1253;24336;-46
2023/03/29 13:24:28;;;;;;;12.80;6.80;;;22.50;54.40;;;;;;222205;1262;22519;-44
2023/03/29 13:29:52;;;;;;;13.10;6.40;;;22.50;54.30;;;;;;222185;1247;22503;-44
2023/03/29 13:35:20;;;;;;;12.40;6.70;;;22.50;54.00;;;;;;222414;1254;24473;-44
2023/03/29 13:40:43;;;;;;;14.20;6.70;;;22.60;54.00;;;;;;222297;1263;22844;-41
2023/03/29 13:45:56;;;;;;;10.80;5.90;;;22.60;53.50;;;;;;222259;1255;22511;-44
2023/03/29 13:51:23;;;;;;;8.70;6.20;;;22.50;53.70;;;;;;222226;1256;24194;-45
2023/03/29 13:57:04;;;;;;;8.30;5.70;;;22.50;53.50;;;;;;222321;1255;24181;-44
2023/03/29 14:02:18;;;;;;;10.70;6.70;;;22.50;53.40;;;;;;222059;1255;22503;-43
2023/03/29 14:07:25;;;;;;;10.50;6.00;;;22.60;53.90;;;;;;222374;1257;23083;-49
2023/03/29 14:12:35;;;;;;;10.20;6.20;;;22.60;53.80;;;;;;222523;1260;22760;-43
2023/03/29 14:17:43;;;;;;;8.80;6.20;;;22.50;53.60;;;;;;222305;1256;22529;-47
2023/03/29 14:22:48;;;;;;;24.50;7.20;;;22.50;54.80;;;;;;222370;1253;24197;-44
2023/03/29 14:27:52;;;;;;;8.60;5.90;;;22.50;56.40;;;;;;222263;1257;22684;-45
2023/03/29 14:32:56;;;;;;;13.00;7.80;;;22.50;57.00;;;;;;222408;1254;22526;-43
2023/03/29 14:38:02;;;;;;;11.50;6.60;;;22.40;58.80;;;;;;222400;1262;24368;-42
2023/03/29 14:43:09;;;;;;;9.80;6.30;;;22.40;56.70;;;;;;222398;1249;25497;-49
2023/03/29 14:48:15;;;;;;;11.60;5.50;;;22.40;56.30;;;;;;222533;1260;22514;-49
2023/03/29 14:53:21;;;;;;;7.90;6.60;;;22.40;55.80;;;;;;222388;1255;22711;-44
2023/03/29 14:58:32;;;;;;;7.30;5.30;;;22.40;56.60;;;;;;222472;1262;22524;-47
2023/03/29 15:03:48;;;;;;;8.00;6.30;;;22.40;56.40;;;;;;222380;1260;23918;-46
2023/03/29 15:08:54;;;;;;;8.50;5.30;;;22.30;55.90;;;;;;222492;1262;22523;-49
2023/03/29 15:14:15;;;;;;;8.00;5.10;;;22.30;56.30;;;;;;222361;1260;22507;-45
2023/03/29 15:19:24;;;;;;;8.40;4.80;;;22.30;55.90;;;;;;222402;1265;24905;-51
2023/03/29 15:24:31;;;;;;;9.40;5.80;;;22.30;56.80;;;;;;222446;1261;24372;-47
2023/03/29 15:29:41;;;;;;;9.10;5.80;;;22.30;56.40;;;;;;222350;1253;23932;-46
2023/03/29 15:34:46;;;;;;;14.80;5.80;;;22.30;55.80;;;;;;222541;1262;25562;-53
2023/03/29 15:39:50;;;;;;;22.80;10.40;;;22.30;56.00;;;;;;222334;1260;24247;-48
2023/03/29 15:44:55;;;;;;;66.10;32.90;;;22.30;55.60;;;;;;222393;1253;24194;-44
2023/03/29 15:49:59;;;;;;;55.00;28.90;;;22.30;55.50;;;;;;222479;1256;22562;-45
2023/03/29 15:55:04;;;;;;;52.00;26.10;;;22.20;55.60;;;;;;222172;1255;23893;-45
2023/03/29 16:00:12;;;;;;;47.60;24.70;;;22.20;55.60;;;;;;222257;1256;23006;-46
2023/03/29 16:05:16;;;;;;;47.00;23.10;;;22.30;55.60;;;;;;222244;1258;23880;-43
2023/03/29 16:10:21;;;;;;;44.00;22.90;;;22.20;54.90;;;;;;222504;1256;22626;-46
2023/03/29 16:15:26;;;;;;;53.20;23.10;;;22.30;54.90;;;;;;222456;1265;25262;-45
2023/03/29 16:20:30;;;;;;;37.40;19.70;;;22.30;54.60;;;;;;222455;1269;24168;-43
2023/03/29 16:25:39;;;;;;;41.90;19.70;;;22.30;54.20;;;;;;222396;1255;22519;-47
2023/03/29 16:30:43;;;;;;;32.70;17.50;;;22.30;54.40;;;;;;222379;1256;23783;-50
2023/03/29 16:35:47;;;;;;;34.80;18.50;;;22.20;53.70;;;;;;222359;1257;24264;-49
2023/03/29 16:40:52;;;;;;;45.80;18.00;;;22.30;53.50;;;;;;222190;1262;22553;-46
2023/03/29 16:45:56;;;;;;;34.40;17.70;;;22.10;53.70;;;;;;222442;1258;24208;-47
2023/03/29 16:51:01;;;;;;;34.70;16.10;;;22.10;53.60;;;;;;222487;1253;22629;-49
2023/03/29 16:56:06;;;;;;;29.90;15.60;;;22.00;54.30;;;;;;222429;1260;24042;-54
2023/03/29 17:01:15;;;;;;;33.80;15.70;;;22.10;54.20;;;;;;222561;1269;25394;-51
2023/03/29 17:06:20;;;;;;;31.50;15.90;;;22.10;54.30;;;;;;222444;1255;24338;-50
2023/03/29 17:11:26;;;;;;;34.60;14.40;;;22.10;54.00;;;;;;222400;1263;24178;-49
2023/03/29 17:16:31;;;;;;;35.30;14.80;;;22.10;53.70;;;;;;222343;1257;22623;-50
2023/03/29 17:21:35;;;;;;;31.30;14.30;;;22.10;53.40;;;;;;222380;1261;24635;-50
2023/03/29 17:26:40;;;;;;;31.70;13.50;;;22.00;53.50;;;;;;222176;1268;22524;-52
2023/03/29 17:31:48;;;;;;;32.70;14.00;;;21.90;54.20;;;;;;222509;1256;24339;-52
2023/03/29 17:36:54;;;;;;;30.70;13.70;;;22.00;53.60;;;;;;222307;1252;23908;-54
2023/03/29 17:41:59;;;;;;;28.60;13.30;;;22.00;53.90;;;;;;222346;1256;25401;-48
2023/03/29 17:47:11;;;;;;;28.00;13.40;;;21.90;53.80;;;;;;222281;1252;24196;-51
2023/03/29 17:59:32;;;;;;;23.40;12.10;;;21.70;55.60;;;;;;222448;1261;22632;-50
2023/03/29 18:04:40;;;;;;;27.90;12.80;;;21.70;56.10;;;;;;222246;1253;25379;-49
2023/03/29 18:09:47;;;;;;;22.90;11.50;;;21.70;55.70;;;;;;222149;1253;24241;-56
2023/03/29 18:14:55;;;;;;;27.00;11.50;;;21.70;55.50;;;;;;222453;1256;24219;-53
2023/03/29 18:20:01;;;;;;;22.10;10.60;;;21.60;55.40;;;;;;222147;1254;23282;-49
2023/03/29 18:25:08;;;;;;;20.60;11.80;;;21.60;55.30;;;;;;225072;1263;179111;-52
2023/03/29 18:30:15;;;;;;;17.30;10.80;;;21.60;55.10;;;;;;222143;1263;22518;-50
2023/03/29 18:35:21;;;;;;;16.50;10.00;;;21.60;55.20;;;;;;222170;1263;22775;-51
2023/03/29 18:40:29;;;;;;;25.10;10.90;;;21.70;55.10;;;;;;222222;1253;24334;-54
2023/03/29 18:45:41;;;;;;;34.60;10.60;;;22.00;54.90;;;;;;222203;1262;24369;-49
2023/03/29 18:50:47;;;;;;;20.90;9.90;;;22.50;53.80;;;;;;222093;1262;23905;-48
2023/03/29 18:55:56;;;;;;;24.20;10.90;;;22.70;52.40;;;;;;222379;1263;25262;-51
2023/03/29 19:01:06;;;;;;;20.70;10.60;;;22.90;52.80;;;;;;222300;1256;24032;-45
2023/03/29 19:06:13;;;;;;;23.20;9.70;;;23.00;52.50;;;;;;222417;1253;26597;-51
2023/03/29 19:11:19;;;;;;;19.50;9.10;;;23.10;52.70;;;;;;222332;1254;22518;-52
2023/03/29 19:16:27;;;;;;;18.00;9.20;;;23.20;52.60;;;;;;222338;1247;24240;-48
2023/03/29 19:21:32;;;;;;;17.30;8.50;;;23.30;52.10;;;;;;222369;1254;25363;-49
2023/03/29 19:26:38;;;;;;;16.40;8.40;;;23.30;52.00;;;;;;222412;1264;22581;-48
2023/03/29 19:31:46;;;;;;;19.20;9.00;;;23.30;53.70;;;;;;222391;1262;22599;-51
2023/03/29 19:36:54;;;;;;;22.10;8.20;;;23.30;52.40;;;;;;222362;1254;25348;-51
2023/03/29 19:41:59;;;;;;;21.10;8.90;;;23.00;52.00;;;;;;222254;1254;22525;-50
2023/03/29 19:47:05;;;;;;;20.50;9.40;;;23.10;53.50;;;;;;222255;1259;22593;-52
2023/03/29 19:52:15;;;;;;;22.80;9.40;;;23.00;55.20;;;;;;222160;1260;22543;-52
2023/03/29 19:57:27;;;;;;;24.30;9.10;;;22.90;55.80;;;;;;222103;1263;22566;-50
2023/03/29 20:02:35;;;;;;;29.80;9.10;;;22.80;59.80;;;;;;222276;1256;22606;-50
2023/03/29 20:07:40;;;;;;;22.30;9.40;;;22.70;56.60;;;;;;222477;1245;22513;-49
2023/03/29 20:12:46;;;;;;;16.60;8.30;;;22.60;57.30;;;;;;222002;1261;22626;-54
2023/03/29 20:17:53;;;;;;;18.70;7.50;;;22.50;55.90;;;;;;222418;1256;23559;-44
2023/03/29 20:23:05;;;;;;;17.30;8.10;;;22.50;56.30;;;;;;222439;1261;25850;-45
2023/03/29 20:28:11;;;;;;;17.20;7.50;;;22.60;56.60;;;;;;222664;1260;22602;-49
2023/03/29 20:33:20;;;;;;;17.30;8.70;;;22.50;56.40;;;;;;222084;1256;23879;-49
2023/03/29 20:38:25;;;;;;;15.00;7.30;;;22.40;56.10;;;;;;222362;1263;24216;-47
2023/03/29 20:43:36;;;;;;;14.10;7.50;;;22.40;55.90;;;;;;222126;1254;24145;-51
2023/03/29 20:48:51;;;;;;;16.90;8.10;;;22.30;55.90;;;;;;222381;1247;22579;-48
2023/03/29 20:54:02;;;;;;;13.60;6.10;;;22.50;55.40;;;;;;222379;1263;22563;-50
2023/03/29 20:59:09;;;;;;;15.50;7.20;;;22.50;55.50;;;;;;222408;1262;24358;-50
2023/03/29 21:04:13;;;;;;;16.40;7.20;;;22.40;55.10;;;;;;222395;1256;22591;-49
2023/03/29 21:09:20;;;;;;;12.20;6.90;;;22.40;55.10;;;;;;222585;1262;23882;-52
2023/03/29 21:14:25;;;;;;;11.20;7.10;;;22.30;55.10;;;;;;222127;1255;22521;-47
2023/03/29 21:19:29;;;;;;;11.90;6.70;;;22.20;55.10;;;;;;222404;1262;24255;-51
2023/03/29 21:24:35;;;;;;;12.00;6.60;;;22.20;54.90;;;;;;222547;1247;23939;-48
2023/03/29 21:29:39;;;;;;;11.10;6.00;;;22.20;54.60;;;;;;222167;1262;22813;-48
2023/03/29 21:34:43;;;;;;;7.50;5.60;;;22.10;54.50;;;;;;222389;1265;25497;-49
2023/03/29 21:39:48;;;;;;;10.50;6.10;;;22.10;54.40;;;;;;222225;1260;24311;-51
2023/03/29 21:44:52;;;;;;;10.00;5.80;;;22.00;54.20;;;;;;222143;1267;25233;-45
2023/03/29 21:49:56;;;;;;;11.80;5.70;;;22.10;54.20;;;;;;222371;1260;24187;-47
2023/03/29 21:55:00;;;;;;;7.80;6.00;;;22.10;54.20;;;;;;221911;1261;23481;-44
2023/03/29 22:00:10;;;;;;;8.60;5.20;;;22.10;53.90;;;;;;223134;1263;22548;-44
2023/03/29 22:05:15;;;;;;;9.30;5.80;;;22.10;53.70;;;;;;223595;1263;23005;-50
2023/03/29 22:10:22;;;;;;;10.90;5.70;;;22.00;53.80;;;;;;222388;1261;25594;-53
2023/03/29 22:15:28;;;;;;;10.40;5.40;;;22.00;55.50;;;;;;222145;1262;22511;-54
2023/03/29 22:20:33;;;;;;;7.90;5.80;;;21.90;55.90;;;;;;222342;1262;25309;-52
2023/03/29 22:25:37;;;;;;;10.90;5.90;;;22.00;55.80;;;;;;222171;1262;22592;-54
2023/03/29 22:30:41;;;;;;;12.00;5.90;;;21.90;56.20;;;;;;222188;1268;24104;-53
2023/03/29 22:35:45;;;;;;;9.90;6.10;;;21.90;55.80;;;;;;222380;1259;22504;-55
2023/03/29 22:40:49;;;;;;;8.50;5.10;;;21.90;55.90;;;;;;222304;1259;23917;-57
2023/03/29 22:45:53;;;;;;;10.60;6.20;;;21.90;55.90;;;;;;222181;1261;24187;-52
2023/03/29 22:50:58;;;;;;;7.60;5.00;;;21.80;55.90;;;;;;222270;1267;22755;-51
2023/03/29 22:56:03;;;;;;;8.30;5.60;;;21.90;56.00;;;;;;222029;1261;25599;-50
2023/03/29 23:01:07;;;;;;;11.20;5.20;;;21.80;56.00;;;;;;222329;1262;25480;-54
2023/03/29 23:06:12;;;;;;;8.50;4.90;;;21.80;55.90;;;;;;222117;1265;25224;-51
2023/03/29 23:11:16;;;;;;;9.30;5.80;;;21.90;56.10;;;;;;230153;1265;22094;-52
2023/03/29 23:16:20;;;;;;;7.10;4.20;;;21.80;55.60;;;;;;228990;1254;22518;-51
2023/03/29 23:21:26;;;;;;;7.00;4.50;;;22.00;55.20;;;;;;221781;1264;22660;-52
2023/03/29 23:26:30;;;;;;;8.30;5.10;;;21.90;55.30;;;;;;222082;1262;22550;-50
2023/03/29 23:31:35;;;;;;;6.90;4.90;;;21.80;55.60;;;;;;223208;1253;24079;-52
2023/03/29 23:36:39;;;;;;;6.00;4.30;;;21.80;56.00;;;;;;222155;1262;22510;-58
2023/03/29 23:41:43;;;;;;;6.30;4.70;;;21.80;56.70;;;;;;222308;1261;22526;-53
2023/03/29 23:46:47;;;;;;;6.30;4.20;;;22.00;56.00;;;;;;222375;1255;22520;-57
2023/03/29 23:51:51;;;;;;;6.10;4.10;;;22.40;55.30;;;;;;222377;1262;22588;-52
2023/03/29 23:56:55;;;;;;;4.50;4.00;;;22.60;54.20;;;;;;222192;1253;23895;-50
